sensor_id;sensor_type;location;lat;lon;timestamp;P1;durP1;ratioP1;P2;durP2;ratioP2
36315;SDS011;22343;50.820;2.666;2023-08-21T00:02:32;5.78;;;2.90;;
36315;SDS011;22343;50.820;2.666;2023-08-21T00:05:18;5.28;;;2.90;;
36315;SDS011;22343;50.820;2.666;2023-08-21T00:08:03;6.15;;;2.60;;
36315;SDS011;22343;50.820;2.666;2023-08-21T00:10:48;6.13;;;3.00;;
36315;SDS011;22343;50.820;2.666;2023-08-21T00:13:34;6.88;;;3.25;;
36315;SDS011;22343;50.820;2.666;2023-08-21T00:16:18;6.82;;;3.00;;
36315;SDS011;22343;50.820;2.666;2023-08-21T00:19:04;7.30;;;2.78;;
36315;SDS011;22343;50.820;2.666;2023-08-21T00:21:50;5.03;;;2.67;;
36315;SDS011;22343;50.820;2.666;2023-08-21T00:24:35;6.93;;;2.88;;
36315;SDS011;22343;50.820;2.666;2023-08-21T00:27:19;4.97;;;2.63;;
36315;SDS011;22343;50.820;2.666;2023-08-21T00:30:04;6.07;;;3.17;;
36315;SDS011;22343;50.820;2.666;2023-08-21T00:32:50;6.20;;;2.90;;
36315;SDS011;22343;50.820;2.666;2023-08-21T00:35:36;6.40;;;3.00;;
36315;SDS011;22343;50.820;2.666;2023-08-21T00:38:21;5.40;;;2.90;;
36315;SDS011;22343;50.820;2.666;2023-08-21T00:41:08;4.10;;;2.60;;
36315;SDS011;22343;50.820;2.666;2023-08-21T00:43:54;4.30;;;2.67;;
36315;SDS011;22343;50.820;2.666;2023-08-21T00:46:40;4.95;;;2.83;;
36315;SDS011;22343;50.820;2.666;2023-08-21T00:49:26;4.97;;;3.17;;
36315;SDS011;22343;50.820;2.666;2023-08-21T00:52:12;5.57;;;3.33;;
36315;SDS011;22343;50.820;2.666;2023-08-21T00:55:00;6.38;;;2.75;;
36315;SDS011;22343;50.820;2.666;2023-08-21T00:57:47;4.95;;;3.00;;
36315;SDS011;22343;50.820;2.666;2023-08-21T01:00:33;4.70;;;2.70;;
36315;SDS011;22343;50.820;2.666;2023-08-21T01:03:20;6.50;;;3.20;;
36315;SDS011;22343;50.820;2.666;2023-08-21T01:06:07;6.65;;;3.05;;
36315;SDS011;22343;50.820;2.666;2023-08-21T01:09:04;5.72;;;3.13;;
36315;SDS011;22343;50.820;2.666;2023-08-21T01:12:18;4.50;;;3.42;;
36315;SDS011;22343;50.820;2.666;2023-08-21T01:15:08;5.30;;;3.10;;
36315;SDS011;22343;50.820;2.666;2023-08-21T01:17:54;4.53;;;2.92;;
36315;SDS011;22343;50.820;2.666;2023-08-21T01:20:39;7.43;;;3.70;;
36315;SDS011;22343;50.820;2.666;2023-08-21T01:23:33;7.32;;;3.60;;
36315;SDS011;22343;50.820;2.666;2023-08-21T01:26:22;6.45;;;3.30;;
36315;SDS011;22343;50.820;2.666;2023-08-21T01:29:08;7.07;;;3.40;;
36315;SDS011;22343;50.820;2.666;2023-08-21T01:35:18;6.35;;;3.30;;
36315;SDS011;22343;50.820;2.666;2023-08-21T01:38:06;5.57;;;3.10;;
36315;SDS011;22343;50.820;2.666;2023-08-21T01:40:51;6.60;;;3.35;;
36315;SDS011;22343;50.820;2.666;2023-08-21T01:43:36;5.28;;;3.00;;
36315;SDS011;22343;50.820;2.666;2023-08-21T01:46:20;6.18;;;3.10;;
36315;SDS011;22343;50.820;2.666;2023-08-21T01:49:07;5.45;;;3.00;;
36315;SDS011;22343;50.820;2.666;2023-08-21T01:51:52;6.18;;;2.90;;
36315;SDS011;22343;50.820;2.666;2023-08-21T01:54:36;5.63;;;2.85;;
36315;SDS011;22343;50.820;2.666;2023-08-21T01:57:21;5.40;;;3.15;;
36315;SDS011;22343;50.820;2.666;2023-08-21T02:00:08;5.22;;;3.00;;
36315;SDS011;22343;50.820;2.666;2023-08-21T02:02:53;3.00;;;2.60;;
36315;SDS011;22343;50.820;2.666;2023-08-21T02:05:39;5.72;;;3.30;;
36315;SDS011;22343;50.820;2.666;2023-08-21T02:08:26;5.20;;;2.80;;
36315;SDS011;22343;50.820;2.666;2023-08-21T02:11:20;4.28;;;2.80;;
36315;SDS011;22343;50.820;2.666;2023-08-21T02:14:07;8.02;;;3.25;;
36315;SDS011;22343;50.820;2.666;2023-08-21T02:16:52;6.40;;;3.35;;
36315;SDS011;22343;50.820;2.666;2023-08-21T02:19:38;6.43;;;3.20;;
36315;SDS011;22343;50.820;2.666;2023-08-21T02:22:22;6.03;;;2.92;;
36315;SDS011;22343;50.820;2.666;2023-08-21T02:25:08;4.78;;;2.75;;
36315;SDS011;22343;50.820;2.666;2023-08-21T02:27:56;4.13;;;2.90;;
36315;SDS011;22343;50.820;2.666;2023-08-21T02:30:41;4.63;;;2.83;;
36315;SDS011;22343;50.820;2.666;2023-08-21T02:33:27;6.03;;;3.13;;
36315;SDS011;22343;50.820;2.666;2023-08-21T02:36:13;5.53;;;3.05;;
36315;SDS011;22343;50.820;2.666;2023-08-21T02:38:59;3.70;;;2.95;;
36315;SDS011;22343;50.820;2.666;2023-08-21T02:41:44;4.85;;;3.17;;
36315;SDS011;22343;50.820;2.666;2023-08-21T02:44:30;5.28;;;2.95;;
36315;SDS011;22343;50.820;2.666;2023-08-21T02:47:14;4.72;;;2.95;;
36315;SDS011;22343;50.820;2.666;2023-08-21T02:50:02;5.90;;;3.10;;
36315;SDS011;22343;50.820;2.666;2023-08-21T02:52:52;5.40;;;3.30;;
36315;SDS011;22343;50.820;2.666;2023-08-21T02:55:37;5.35;;;3.30;;
36315;SDS011;22343;50.820;2.666;2023-08-21T02:58:23;5.78;;;3.28;;
36315;SDS011;22343;50.820;2.666;2023-08-21T03:01:09;5.57;;;3.47;;
36315;SDS011;22343;50.820;2.666;2023-08-21T03:03:55;6.13;;;3.28;;
36315;SDS011;22343;50.820;2.666;2023-08-21T03:06:40;5.82;;;3.47;;
36315;SDS011;22343;50.820;2.666;2023-08-21T03:09:27;5.70;;;3.17;;
36315;SDS011;22343;50.820;2.666;2023-08-21T03:12:12;5.55;;;3.40;;
36315;SDS011;22343;50.820;2.666;2023-08-21T03:14:58;3.55;;;2.90;;
36315;SDS011;22343;50.820;2.666;2023-08-21T03:17:44;4.38;;;3.20;;
36315;SDS011;22343;50.820;2.666;2023-08-21T03:20:29;4.00;;;3.25;;
36315;SDS011;22343;50.820;2.666;2023-08-21T03:23:15;5.00;;;3.15;;
36315;SDS011;22343;50.820;2.666;2023-08-21T03:26:01;5.50;;;3.70;;
36315;SDS011;22343;50.820;2.666;2023-08-21T03:28:45;5.93;;;3.45;;
36315;SDS011;22343;50.820;2.666;2023-08-21T03:31:30;4.22;;;3.28;;
36315;SDS011;22343;50.820;2.666;2023-08-21T03:34:17;6.63;;;3.60;;
36315;SDS011;22343;50.820;2.666;2023-08-21T03:37:02;6.22;;;3.65;;
36315;SDS011;22343;50.820;2.666;2023-08-21T03:39:46;6.68;;;4.05;;
36315;SDS011;22343;50.820;2.666;2023-08-21T03:42:32;5.05;;;3.88;;
36315;SDS011;22343;50.820;2.666;2023-08-21T03:45:18;8.98;;;4.28;;
36315;SDS011;22343;50.820;2.666;2023-08-21T03:48:05;5.80;;;4.10;;
36315;SDS011;22343;50.820;2.666;2023-08-21T03:50:50;7.65;;;3.75;;
36315;SDS011;22343;50.820;2.666;2023-08-21T03:53:35;5.05;;;3.50;;
36315;SDS011;22343;50.820;2.666;2023-08-21T03:56:21;5.43;;;3.17;;
36315;SDS011;22343;50.820;2.666;2023-08-21T03:59:09;6.57;;;3.38;;
36315;SDS011;22343;50.820;2.666;2023-08-21T04:01:54;5.05;;;3.30;;
36315;SDS011;22343;50.820;2.666;2023-08-21T04:04:39;3.47;;;2.95;;
36315;SDS011;22343;50.820;2.666;2023-08-21T04:07:24;6.20;;;2.85;;
36315;SDS011;22343;50.820;2.666;2023-08-21T04:10:09;4.30;;;3.20;;
36315;SDS011;22343;50.820;2.666;2023-08-21T04:12:54;3.85;;;3.10;;
36315;SDS011;22343;50.820;2.666;2023-08-21T04:15:44;5.13;;;3.25;;
36315;SDS011;22343;50.820;2.666;2023-08-21T04:18:29;5.97;;;3.58;;
36315;SDS011;22343;50.820;2.666;2023-08-21T04:21:15;6.20;;;3.22;;
36315;SDS011;22343;50.820;2.666;2023-08-21T04:24:01;6.43;;;3.80;;
36315;SDS011;22343;50.820;2.666;2023-08-21T04:26:47;5.75;;;3.80;;
36315;SDS011;22343;50.820;2.666;2023-08-21T04:29:32;6.35;;;3.80;;
36315;SDS011;22343;50.820;2.666;2023-08-21T04:32:16;7.13;;;4.10;;
36315;SDS011;22343;50.820;2.666;2023-08-21T04:35:01;5.67;;;3.90;;
36315;SDS011;22343;50.820;2.666;2023-08-21T04:37:46;7.23;;;3.70;;
36315;SDS011;22343;50.820;2.666;2023-08-21T04:40:31;4.80;;;3.75;;
36315;SDS011;22343;50.820;2.666;2023-08-21T04:43:16;5.07;;;3.45;;
36315;SDS011;22343;50.820;2.666;2023-08-21T04:46:01;5.80;;;3.70;;
36315;SDS011;22343;50.820;2.666;2023-08-21T04:48:48;6.17;;;3.93;;
36315;SDS011;22343;50.820;2.666;2023-08-21T04:51:33;5.17;;;3.83;;
36315;SDS011;22343;50.820;2.666;2023-08-21T04:54:17;6.77;;;4.30;;
36315;SDS011;22343;50.820;2.666;2023-08-21T04:57:03;5.90;;;4.13;;
36315;SDS011;22343;50.820;2.666;2023-08-21T04:59:49;7.43;;;4.53;;
36315;SDS011;22343;50.820;2.666;2023-08-21T05:02:35;8.57;;;4.63;;
36315;SDS011;22343;50.820;2.666;2023-08-21T05:05:19;7.23;;;4.40;;
36315;SDS011;22343;50.820;2.666;2023-08-21T05:08:05;7.60;;;4.23;;
36315;SDS011;22343;50.820;2.666;2023-08-21T05:10:57;7.40;;;4.20;;
36315;SDS011;22343;50.820;2.666;2023-08-21T05:13:43;6.73;;;4.30;;
36315;SDS011;22343;50.820;2.666;2023-08-21T05:16:28;7.95;;;5.40;;
36315;SDS011;22343;50.820;2.666;2023-08-21T05:19:14;10.80;;;5.80;;
36315;SDS011;22343;50.820;2.666;2023-08-21T05:21:59;8.48;;;5.38;;
36315;SDS011;22343;50.820;2.666;2023-08-21T05:24:45;8.27;;;5.75;;
36315;SDS011;22343;50.820;2.666;2023-08-21T05:27:31;10.10;;;6.27;;
36315;SDS011;22343;50.820;2.666;2023-08-21T05:30:15;10.50;;;6.67;;
36315;SDS011;22343;50.820;2.666;2023-08-21T05:33:03;12.67;;;6.80;;
36315;SDS011;22343;50.820;2.666;2023-08-21T05:35:48;13.33;;;7.67;;
36315;SDS011;22343;50.820;2.666;2023-08-21T05:38:32;14.50;;;7.90;;
36315;SDS011;22343;50.820;2.666;2023-08-21T05:41:17;14.20;;;9.17;;
36315;SDS011;22343;50.820;2.666;2023-08-21T05:44:02;14.88;;;9.40;;
36315;SDS011;22343;50.820;2.666;2023-08-21T05:46:46;15.60;;;9.68;;
36315;SDS011;22343;50.820;2.666;2023-08-21T05:49:31;15.60;;;9.65;;
36315;SDS011;22343;50.820;2.666;2023-08-21T05:52:17;16.50;;;10.23;;
36315;SDS011;22343;50.820;2.666;2023-08-21T05:55:01;16.13;;;10.40;;
36315;SDS011;22343;50.820;2.666;2023-08-21T05:57:47;19.38;;;11.25;;
36315;SDS011;22343;50.820;2.666;2023-08-21T06:00:32;20.73;;;12.55;;
36315;SDS011;22343;50.820;2.666;2023-08-21T06:03:17;22.10;;;12.10;;
36315;SDS011;22343;50.820;2.666;2023-08-21T06:06:03;18.95;;;12.52;;
36315;SDS011;22343;50.820;2.666;2023-08-21T06:08:49;24.13;;;13.30;;
36315;SDS011;22343;50.820;2.666;2023-08-21T06:11:33;20.42;;;12.23;;
36315;SDS011;22343;50.820;2.666;2023-08-21T06:14:18;23.08;;;12.98;;
36315;SDS011;22343;50.820;2.666;2023-08-21T06:17:04;21.17;;;11.73;;
36315;SDS011;22343;50.820;2.666;2023-08-21T06:19:49;19.63;;;11.43;;
36315;SDS011;22343;50.820;2.666;2023-08-21T06:22:35;19.13;;;11.60;;
36315;SDS011;22343;50.820;2.666;2023-08-21T06:25:20;17.10;;;11.82;;
36315;SDS011;22343;50.820;2.666;2023-08-21T06:28:05;20.40;;;12.02;;
36315;SDS011;22343;50.820;2.666;2023-08-21T06:30:58;13.57;;;10.45;;
36315;SDS011;22343;50.820;2.666;2023-08-21T06:33:57;15.00;;;11.65;;
36315;SDS011;22343;50.820;2.666;2023-08-21T06:36:42;16.55;;;11.73;;
36315;SDS011;22343;50.820;2.666;2023-08-21T06:39:28;15.73;;;11.43;;
36315;SDS011;22343;50.820;2.666;2023-08-21T06:42:14;14.95;;;11.60;;
36315;SDS011;22343;50.820;2.666;2023-08-21T06:45:00;16.00;;;11.75;;
36315;SDS011;22343;50.820;2.666;2023-08-21T06:47:44;15.80;;;11.38;;
36315;SDS011;22343;50.820;2.666;2023-08-21T06:50:29;16.25;;;11.45;;
36315;SDS011;22343;50.820;2.666;2023-08-21T06:53:15;15.63;;;11.85;;
36315;SDS011;22343;50.820;2.666;2023-08-21T06:56:00;16.00;;;12.30;;
36315;SDS011;22343;50.820;2.666;2023-08-21T06:58:47;16.85;;;12.25;;
36315;SDS011;22343;50.820;2.666;2023-08-21T07:01:33;16.15;;;12.48;;
36315;SDS011;22343;50.820;2.666;2023-08-21T07:04:18;16.25;;;12.23;;
36315;SDS011;22343;50.820;2.666;2023-08-21T07:07:02;15.60;;;11.70;;
36315;SDS011;22343;50.820;2.666;2023-08-21T07:09:49;14.95;;;12.00;;
36315;SDS011;22343;50.820;2.666;2023-08-21T07:12:36;14.30;;;11.60;;
36315;SDS011;22343;50.820;2.666;2023-08-21T07:15:21;14.43;;;11.90;;
36315;SDS011;22343;50.820;2.666;2023-08-21T07:18:07;16.35;;;11.95;;
36315;SDS011;22343;50.820;2.666;2023-08-21T07:20:53;14.68;;;11.77;;
36315;SDS011;22343;50.820;2.666;2023-08-21T07:23:39;15.27;;;11.60;;
36315;SDS011;22343;50.820;2.666;2023-08-21T07:26:24;15.65;;;11.88;;
36315;SDS011;22343;50.820;2.666;2023-08-21T07:29:08;15.20;;;11.75;;
36315;SDS011;22343;50.820;2.666;2023-08-21T07:31:54;16.48;;;10.98;;
36315;SDS011;22343;50.820;2.666;2023-08-21T07:34:43;14.73;;;10.27;;
36315;SDS011;22343;50.820;2.666;2023-08-21T07:37:29;13.48;;;10.15;;
36315;SDS011;22343;50.820;2.666;2023-08-21T07:40:13;12.98;;;10.05;;
36315;SDS011;22343;50.820;2.666;2023-08-21T07:42:59;10.82;;;8.38;;
36315;SDS011;22343;50.820;2.666;2023-08-21T07:45:45;12.40;;;7.70;;
36315;SDS011;22343;50.820;2.666;2023-08-21T07:48:31;9.80;;;7.07;;
36315;SDS011;22343;50.820;2.666;2023-08-21T07:51:18;11.30;;;7.40;;
36315;SDS011;22343;50.820;2.666;2023-08-21T07:54:04;11.52;;;7.65;;
36315;SDS011;22343;50.820;2.666;2023-08-21T07:56:50;10.30;;;7.50;;
36315;SDS011;22343;50.820;2.666;2023-08-21T07:59:36;13.30;;;8.73;;
36315;SDS011;22343;50.820;2.666;2023-08-21T08:02:20;9.85;;;8.43;;
36315;SDS011;22343;50.820;2.666;2023-08-21T08:05:06;8.68;;;7.03;;
36315;SDS011;22343;50.820;2.666;2023-08-21T08:07:52;10.43;;;7.57;;
36315;SDS011;22343;50.820;2.666;2023-08-21T08:10:40;9.13;;;7.13;;
36315;SDS011;22343;50.820;2.666;2023-08-21T08:13:28;10.60;;;7.40;;
36315;SDS011;22343;50.820;2.666;2023-08-21T08:16:14;7.45;;;5.50;;
36315;SDS011;22343;50.820;2.666;2023-08-21T08:18:58;9.20;;;6.88;;
36315;SDS011;22343;50.820;2.666;2023-08-21T08:21:44;9.50;;;6.32;;
36315;SDS011;22343;50.820;2.666;2023-08-21T08:24:30;8.60;;;5.57;;
36315;SDS011;22343;50.820;2.666;2023-08-21T08:27:14;11.10;;;6.50;;
36315;SDS011;22343;50.820;2.666;2023-08-21T08:30:00;8.23;;;5.90;;
36315;SDS011;22343;50.820;2.666;2023-08-21T08:32:46;8.05;;;5.30;;
36315;SDS011;22343;50.820;2.666;2023-08-21T08:35:31;9.23;;;5.40;;
36315;SDS011;22343;50.820;2.666;2023-08-21T08:38:15;8.50;;;5.70;;
36315;SDS011;22343;50.820;2.666;2023-08-21T08:41:02;7.63;;;4.97;;
36315;SDS011;22343;50.820;2.666;2023-08-21T08:43:47;7.95;;;5.10;;
36315;SDS011;22343;50.820;2.666;2023-08-21T08:46:34;7.30;;;5.65;;
36315;SDS011;22343;50.820;2.666;2023-08-21T08:49:20;7.43;;;4.70;;
36315;SDS011;22343;50.820;2.666;2023-08-21T08:52:06;6.50;;;4.60;;
36315;SDS011;22343;50.820;2.666;2023-08-21T08:54:56;6.88;;;4.45;;
36315;SDS011;22343;50.820;2.666;2023-08-21T08:57:43;8.75;;;4.75;;
36315;SDS011;22343;50.820;2.666;2023-08-21T09:00:28;8.15;;;5.13;;
36315;SDS011;22343;50.820;2.666;2023-08-21T09:03:13;6.38;;;3.80;;
36315;SDS011;22343;50.820;2.666;2023-08-21T09:06:00;5.32;;;4.38;;
36315;SDS011;22343;50.820;2.666;2023-08-21T09:09:03;7.32;;;4.60;;
36315;SDS011;22343;50.820;2.666;2023-08-21T09:11:49;6.63;;;4.82;;
36315;SDS011;22343;50.820;2.666;2023-08-21T09:14:42;5.35;;;4.63;;
36315;SDS011;22343;50.820;2.666;2023-08-21T09:17:29;5.85;;;3.55;;
36315;SDS011;22343;50.820;2.666;2023-08-21T09:20:17;7.55;;;4.70;;
36315;SDS011;22343;50.820;2.666;2023-08-21T09:23:01;8.07;;;4.78;;
36315;SDS011;22343;50.820;2.666;2023-08-21T09:25:48;7.10;;;4.35;;
36315;SDS011;22343;50.820;2.666;2023-08-21T09:28:32;6.13;;;4.20;;
36315;SDS011;22343;50.820;2.666;2023-08-21T09:31:23;5.85;;;3.92;;
36315;SDS011;22343;50.820;2.666;2023-08-21T09:34:08;5.15;;;3.40;;
36315;SDS011;22343;50.820;2.666;2023-08-21T09:36:57;4.68;;;3.50;;
36315;SDS011;22343;50.820;2.666;2023-08-21T09:39:45;6.97;;;3.55;;
36315;SDS011;22343;50.820;2.666;2023-08-21T09:42:30;6.35;;;4.00;;
36315;SDS011;22343;50.820;2.666;2023-08-21T09:45:27;5.80;;;3.45;;
36315;SDS011;22343;50.820;2.666;2023-08-21T09:48:15;4.80;;;3.20;;
36315;SDS011;22343;50.820;2.666;2023-08-21T09:50:59;4.75;;;2.75;;
36315;SDS011;22343;50.820;2.666;2023-08-21T09:53:49;5.57;;;3.70;;
36315;SDS011;22343;50.820;2.666;2023-08-21T09:56:36;7.93;;;3.72;;
36315;SDS011;22343;50.820;2.666;2023-08-21T09:59:23;6.43;;;4.80;;
36315;SDS011;22343;50.820;2.666;2023-08-21T10:02:09;6.97;;;4.20;;
36315;SDS011;22343;50.820;2.666;2023-08-21T10:04:53;5.05;;;3.50;;
36315;SDS011;22343;50.820;2.666;2023-08-21T10:07:47;4.07;;;3.00;;
36315;SDS011;22343;50.820;2.666;2023-08-21T10:10:34;5.70;;;2.90;;
36315;SDS011;22343;50.820;2.666;2023-08-21T10:13:22;5.10;;;3.75;;
36315;SDS011;22343;50.820;2.666;2023-08-21T10:16:12;7.25;;;4.18;;
36315;SDS011;22343;50.820;2.666;2023-08-21T10:19:05;7.40;;;4.07;;
36315;SDS011;22343;50.820;2.666;2023-08-21T10:21:50;5.63;;;4.47;;
36315;SDS011;22343;50.820;2.666;2023-08-21T10:24:43;5.93;;;4.20;;
36315;SDS011;22343;50.820;2.666;2023-08-21T10:27:33;7.28;;;4.15;;
36315;SDS011;22343;50.820;2.666;2023-08-21T10:30:25;6.03;;;4.10;;
36315;SDS011;22343;50.820;2.666;2023-08-21T10:33:13;5.97;;;3.63;;
36315;SDS011;22343;50.820;2.666;2023-08-21T10:35:59;6.25;;;4.00;;
36315;SDS011;22343;50.820;2.666;2023-08-21T10:39:00;5.57;;;3.25;;
36315;SDS011;22343;50.820;2.666;2023-08-21T10:45:12;5.15;;;3.30;;
36315;SDS011;22343;50.820;2.666;2023-08-21T10:48:02;4.82;;;3.03;;
36315;SDS011;22343;50.820;2.666;2023-08-21T10:50:48;7.63;;;3.70;;
36315;SDS011;22343;50.820;2.666;2023-08-21T10:53:36;4.30;;;2.70;;
36315;SDS011;22343;50.820;2.666;2023-08-21T10:56:37;5.35;;;3.10;;
36315;SDS011;22343;50.820;2.666;2023-08-21T10:59:54;5.88;;;3.58;;
36315;SDS011;22343;50.820;2.666;2023-08-21T11:03:01;5.88;;;3.50;;
36315;SDS011;22343;50.820;2.666;2023-08-21T11:06:09;5.65;;;3.40;;
36315;SDS011;22343;50.820;2.666;2023-08-21T11:09:01;5.63;;;3.30;;
36315;SDS011;22343;50.820;2.666;2023-08-21T11:12:11;7.10;;;3.05;;
36315;SDS011;22343;50.820;2.666;2023-08-21T11:14:58;4.47;;;2.45;;
36315;SDS011;22343;50.820;2.666;2023-08-21T11:17:42;5.20;;;2.50;;
36315;SDS011;22343;50.820;2.666;2023-08-21T11:20:36;4.20;;;2.70;;
36315;SDS011;22343;50.820;2.666;2023-08-21T11:23:22;4.43;;;2.60;;
36315;SDS011;22343;50.820;2.666;2023-08-21T11:26:16;4.10;;;2.78;;
36315;SDS011;22343;50.820;2.666;2023-08-21T11:29:01;4.85;;;2.50;;
36315;SDS011;22343;50.820;2.666;2023-08-21T11:31:46;5.00;;;2.40;;
36315;SDS011;22343;50.820;2.666;2023-08-21T11:34:32;4.30;;;2.80;;
36315;SDS011;22343;50.820;2.666;2023-08-21T11:37:19;5.00;;;2.30;;
36315;SDS011;22343;50.820;2.666;2023-08-21T11:40:10;3.38;;;2.03;;
36315;SDS011;22343;50.820;2.666;2023-08-21T11:43:00;3.92;;;2.20;;
36315;SDS011;22343;50.820;2.666;2023-08-21T11:45:54;3.72;;;2.10;;
36315;SDS011;22343;50.820;2.666;2023-08-21T11:48:41;2.58;;;1.83;;
36315;SDS011;22343;50.820;2.666;2023-08-21T11:51:27;3.65;;;1.80;;
36315;SDS011;22343;50.820;2.666;2023-08-21T11:54:12;2.35;;;1.80;;
36315;SDS011;22343;50.820;2.666;2023-08-21T11:56:58;3.70;;;1.70;;
36315;SDS011;22343;50.820;2.666;2023-08-21T11:59:53;2.53;;;1.73;;
36315;SDS011;22343;50.820;2.666;2023-08-21T12:02:55;4.00;;;1.83;;
36315;SDS011;22343;50.820;2.666;2023-08-21T12:05:45;2.47;;;1.73;;
36315;SDS011;22343;50.820;2.666;2023-08-21T12:08:36;4.10;;;1.70;;
36315;SDS011;22343;50.820;2.666;2023-08-21T12:11:27;2.42;;;1.40;;
36315;SDS011;22343;50.820;2.666;2023-08-21T12:14:22;2.40;;;1.58;;
36315;SDS011;22343;50.820;2.666;2023-08-21T12:17:32;2.53;;;1.50;;
36315;SDS011;22343;50.820;2.666;2023-08-21T12:20:22;2.90;;;1.60;;
36315;SDS011;22343;50.820;2.666;2023-08-21T12:23:08;2.33;;;1.65;;
36315;SDS011;22343;50.820;2.666;2023-08-21T12:25:59;2.83;;;1.52;;
36315;SDS011;22343;50.820;2.666;2023-08-21T12:28:48;2.42;;;1.63;;
36315;SDS011;22343;50.820;2.666;2023-08-21T12:31:33;3.83;;;1.65;;
36315;SDS011;22343;50.820;2.666;2023-08-21T12:34:31;2.60;;;1.75;;
36315;SDS011;22343;50.820;2.666;2023-08-21T12:37:28;4.80;;;2.03;;
36315;SDS011;22343;50.820;2.666;2023-08-21T12:40:27;2.58;;;1.95;;
36315;SDS011;22343;50.820;2.666;2023-08-21T12:43:13;1.85;;;1.35;;
36315;SDS011;22343;50.820;2.666;2023-08-21T12:46:00;2.35;;;1.63;;
36315;SDS011;22343;50.820;2.666;2023-08-21T12:48:44;2.47;;;1.48;;
36315;SDS011;22343;50.820;2.666;2023-08-21T12:51:30;3.72;;;2.75;;
36315;SDS011;22343;50.820;2.666;2023-08-21T12:54:16;3.35;;;2.08;;
36315;SDS011;22343;50.820;2.666;2023-08-21T12:57:02;3.03;;;2.05;;
36315;SDS011;22343;50.820;2.666;2023-08-21T12:59:47;2.80;;;1.70;;
36315;SDS011;22343;50.820;2.666;2023-08-21T13:02:33;3.08;;;1.80;;
36315;SDS011;22343;50.820;2.666;2023-08-21T13:05:17;2.15;;;1.60;;
36315;SDS011;22343;50.820;2.666;2023-08-21T13:08:03;2.03;;;1.40;;
36315;SDS011;22343;50.820;2.666;2023-08-21T13:16:35;1.98;;;1.52;;
36315;SDS011;22343;50.820;2.666;2023-08-21T13:19:20;3.20;;;1.55;;
36315;SDS011;22343;50.820;2.666;2023-08-21T13:22:05;2.33;;;1.60;;
36315;SDS011;22343;50.820;2.666;2023-08-21T13:24:51;8.52;;;4.95;;
36315;SDS011;22343;50.820;2.666;2023-08-21T13:27:37;7.85;;;5.80;;
36315;SDS011;22343;50.820;2.666;2023-08-21T13:30:22;7.57;;;6.18;;
36315;SDS011;22343;50.820;2.666;2023-08-21T13:33:08;8.38;;;6.53;;
36315;SDS011;22343;50.820;2.666;2023-08-21T13:35:54;8.70;;;5.75;;
36315;SDS011;22343;50.820;2.666;2023-08-21T13:38:39;9.52;;;5.22;;
36315;SDS011;22343;50.820;2.666;2023-08-21T13:41:25;8.93;;;5.28;;
36315;SDS011;22343;50.820;2.666;2023-08-21T13:44:10;9.57;;;5.93;;
36315;SDS011;22343;50.820;2.666;2023-08-21T13:46:55;10.15;;;5.97;;
36315;SDS011;22343;50.820;2.666;2023-08-21T13:49:40;9.80;;;6.63;;
36315;SDS011;22343;50.820;2.666;2023-08-21T13:52:24;9.25;;;6.40;;
36315;SDS011;22343;50.820;2.666;2023-08-21T13:55:10;7.85;;;5.50;;
36315;SDS011;22343;50.820;2.666;2023-08-21T13:57:56;8.23;;;5.82;;
36315;SDS011;22343;50.820;2.666;2023-08-21T14:00:41;9.35;;;5.90;;
36315;SDS011;22343;50.820;2.666;2023-08-21T14:03:28;7.97;;;5.90;;
36315;SDS011;22343;50.820;2.666;2023-08-21T14:06:13;9.77;;;6.28;;
36315;SDS011;22343;50.820;2.666;2023-08-21T14:08:58;7.55;;;5.28;;
36315;SDS011;22343;50.820;2.666;2023-08-21T14:11:44;9.88;;;5.80;;
36315;SDS011;22343;50.820;2.666;2023-08-21T14:14:30;7.32;;;5.18;;
36315;SDS011;22343;50.820;2.666;2023-08-21T14:17:16;8.95;;;5.72;;
36315;SDS011;22343;50.820;2.666;2023-08-21T14:20:02;7.88;;;5.60;;
36315;SDS011;22343;50.820;2.666;2023-08-21T14:22:48;10.05;;;5.32;;
36315;SDS011;22343;50.820;2.666;2023-08-21T14:25:33;6.65;;;4.53;;
36315;SDS011;22343;50.820;2.666;2023-08-21T14:28:19;5.75;;;4.45;;
36315;SDS011;22343;50.820;2.666;2023-08-21T14:31:05;8.73;;;5.70;;
36315;SDS011;22343;50.820;2.666;2023-08-21T14:33:51;8.27;;;5.55;;
36315;SDS011;22343;50.820;2.666;2023-08-21T14:36:35;9.93;;;5.07;;
36315;SDS011;22343;50.820;2.666;2023-08-21T14:39:21;8.95;;;5.68;;
36315;SDS011;22343;50.820;2.666;2023-08-21T14:42:07;7.32;;;5.07;;
36315;SDS011;22343;50.820;2.666;2023-08-21T14:44:53;6.93;;;5.40;;
36315;SDS011;22343;50.820;2.666;2023-08-21T14:47:37;6.88;;;5.05;;
36315;SDS011;22343;50.820;2.666;2023-08-21T14:50:23;8.68;;;5.38;;
36315;SDS011;22343;50.820;2.666;2023-08-21T14:53:07;8.57;;;5.35;;
36315;SDS011;22343;50.820;2.666;2023-08-21T14:55:52;7.35;;;4.90;;
36315;SDS011;22343;50.820;2.666;2023-08-21T14:58:37;9.75;;;5.50;;
36315;SDS011;22343;50.820;2.666;2023-08-21T15:01:23;9.05;;;5.18;;
36315;SDS011;22343;50.820;2.666;2023-08-21T15:04:08;6.38;;;4.32;;
36315;SDS011;22343;50.820;2.666;2023-08-21T15:06:54;8.75;;;5.40;;
36315;SDS011;22343;50.820;2.666;2023-08-21T15:09:39;7.95;;;4.82;;
36315;SDS011;22343;50.820;2.666;2023-08-21T15:12:25;6.25;;;4.80;;
36315;SDS011;22343;50.820;2.666;2023-08-21T15:15:09;7.78;;;4.60;;
36315;SDS011;22343;50.820;2.666;2023-08-21T15:17:56;6.53;;;3.80;;
36315;SDS011;22343;50.820;2.666;2023-08-21T15:20:41;6.97;;;4.20;;
36315;SDS011;22343;50.820;2.666;2023-08-21T15:23:26;7.05;;;3.75;;
36315;SDS011;22343;50.820;2.666;2023-08-21T15:26:12;6.28;;;4.00;;
36315;SDS011;22343;50.820;2.666;2023-08-21T15:28:59;8.82;;;4.13;;
36315;SDS011;22343;50.820;2.666;2023-08-21T15:31:45;7.32;;;3.80;;
36315;SDS011;22343;50.820;2.666;2023-08-21T15:34:31;7.13;;;4.05;;
36315;SDS011;22343;50.820;2.666;2023-08-21T15:37:16;8.30;;;4.35;;
36315;SDS011;22343;50.820;2.666;2023-08-21T15:40:02;6.95;;;3.65;;
36315;SDS011;22343;50.820;2.666;2023-08-21T15:42:47;7.30;;;4.35;;
36315;SDS011;22343;50.820;2.666;2023-08-21T15:45:33;6.20;;;3.85;;
36315;SDS011;22343;50.820;2.666;2023-08-21T15:48:19;7.35;;;4.30;;
36315;SDS011;22343;50.820;2.666;2023-08-21T15:51:04;6.57;;;4.20;;
36315;SDS011;22343;50.820;2.666;2023-08-21T15:53:51;5.82;;;3.78;;
36315;SDS011;22343;50.820;2.666;2023-08-21T15:56:36;6.95;;;3.95;;
36315;SDS011;22343;50.820;2.666;2023-08-21T15:59:21;7.20;;;3.78;;
36315;SDS011;22343;50.820;2.666;2023-08-21T16:02:06;9.70;;;4.53;;
36315;SDS011;22343;50.820;2.666;2023-08-21T16:04:50;7.35;;;4.75;;
36315;SDS011;22343;50.820;2.666;2023-08-21T16:07:36;7.80;;;4.47;;
36315;SDS011;22343;50.820;2.666;2023-08-21T16:10:22;7.43;;;4.97;;
36315;SDS011;22343;50.820;2.666;2023-08-21T16:13:08;5.80;;;4.38;;
36315;SDS011;22343;50.820;2.666;2023-08-21T16:15:52;9.50;;;4.55;;
36315;SDS011;22343;50.820;2.666;2023-08-21T16:18:38;6.45;;;4.60;;
36315;SDS011;22343;50.820;2.666;2023-08-21T16:21:23;6.22;;;3.88;;
36315;SDS011;22343;50.820;2.666;2023-08-21T16:24:08;6.38;;;4.20;;
36315;SDS011;22343;50.820;2.666;2023-08-21T16:26:54;7.32;;;4.90;;
36315;SDS011;22343;50.820;2.666;2023-08-21T16:29:38;7.22;;;5.00;;
36315;SDS011;22343;50.820;2.666;2023-08-21T16:32:23;8.18;;;5.75;;
36315;SDS011;22343;50.820;2.666;2023-08-21T16:35:09;6.32;;;4.75;;
36315;SDS011;22343;50.820;2.666;2023-08-21T16:37:55;7.35;;;5.00;;
36315;SDS011;22343;50.820;2.666;2023-08-21T16:40:41;9.25;;;5.18;;
36315;SDS011;22343;50.820;2.666;2023-08-21T16:43:27;7.20;;;5.03;;
36315;SDS011;22343;50.820;2.666;2023-08-21T16:46:13;8.82;;;5.40;;
36315;SDS011;22343;50.820;2.666;2023-08-21T16:48:59;8.10;;;4.93;;
36315;SDS011;22343;50.820;2.666;2023-08-21T16:51:44;6.38;;;5.32;;
36315;SDS011;22343;50.820;2.666;2023-08-21T16:54:30;7.72;;;5.40;;